Time;durP1;ratioP1;P1;durP2;ratioP2;P2;SDS_P1;SDS_P2;PMS_P1;PMS_P2;Temp;Humidity;BMP_temperature;BMP_pressure;BME280_temperature;BME280_humidity;BME280_pressure;Samples;Min_cycle;Max_cycle;Signal;HPM_P1;HPM_P2
2023/11/16 00:00:59;;;;;;;8.43;0.95;;;;;;;-146.25;100.00;52577.03;2089741;28;20189;-77
2023/11/16 00:02:04;;;;;;;9.80;0.73;;;;;;;-146.25;100.00;52573.00;2088109;28;36573;-75
2023/11/16 00:03:06;;;;;;;8.13;0.88;;;;;;;-146.25;100.00;52575.00;2080376;28;36640;-77
2023/11/16 00:04:09;;;;;;;12.30;0.90;;;;;;;-146.25;100.00;52629.75;2079738;28;34265;-77
2023/11/16 00:05:16;;;;;;;7.03;1.05;;;;;;;-146.25;100.00;52623.69;2080264;28;35675;-77
2023/11/16 00:06:18;;;;;;;7.40;0.75;;;;;;;-146.25;100.00;52585.16;2080076;28;20994;-77
2023/11/16 00:07:19;;;;;;;9.80;0.88;;;;;;;-146.25;100.00;52615.56;2079795;28;32906;-76
2023/11/16 00:08:21;;;;;;;6.90;0.75;;;;;;;-146.25;100.00;52599.34;2080049;28;33758;-76
2023/11/16 00:09:23;;;;;;;13.43;1.08;;;;;;;-146.25;100.00;52597.31;2080353;28;36256;-77
2023/11/16 00:10:25;;;;;;;7.13;0.60;;;;;;;-146.25;100.00;52603.41;2080163;28;35367;-76
2023/11/16 00:11:29;;;;;;;8.35;0.52;;;;;;;-146.25;100.00;52611.50;2080585;28;33681;-76
2023/11/16 00:12:34;;;;;;;14.02;1.08;;;;;;;-146.25;100.00;52621.66;2080043;28;35826;-75
2023/11/16 00:13:36;;;;;;;9.75;0.45;;;;;;;-146.25;100.00;52591.25;2080952;28;20046;-76
2023/11/16 00:14:38;;;;;;;5.80;0.50;;;;;;;-146.25;100.00;52593.25;2079850;28;38864;-76
2023/11/16 00:15:41;;;;;;;9.38;0.82;;;;;;;-146.25;100.00;52603.41;2080915;28;20073;-77
2023/11/16 00:16:44;;;;;;;9.07;0.95;;;;;;;-146.25;100.00;52629.75;2080731;28;20045;-76
2023/11/16 00:17:47;;;;;;;8.05;0.50;;;;;;;-146.25;100.00;52611.50;2080254;28;36212;-76
2023/11/16 00:18:49;;;;;;;9.57;0.70;;;;;;;-146.25;100.00;52587.19;2080514;28;20143;-74
2023/11/16 00:19:51;;;;;;;7.95;0.65;;;;;;;-146.25;100.00;52617.59;2079673;28;33997;-76
2023/11/16 00:20:55;;;;;;;8.35;1.13;;;;;;;-146.25;100.00;52562.84;2079374;28;35549;-78
2023/11/16 00:21:57;;;;;;;5.90;0.40;;;;;;;-146.25;100.00;52609.50;2080248;28;32260;-76
2023/11/16 00:22:59;;;;;;;6.65;0.70;;;;;;;-146.25;100.00;52595.28;2079819;28;34107;-74
2023/11/16 00:24:01;;;;;;;14.93;0.73;;;;;;;-146.25;100.00;52603.41;2079655;28;36840;-76
2023/11/16 00:25:06;;;;;;;8.60;0.73;;;;;;;-146.25;100.00;52609.50;2079037;28;33447;-75
2023/11/16 00:26:11;;;;;;;8.52;0.60;;;;;;;-146.25;100.00;52603.41;2079675;28;39065;-76
2023/11/16 00:27:18;;;;;;;7.78;0.50;;;;;;;-146.25;100.00;52605.44;2080740;28;20042;-78
2023/11/16 00:28:20;;;;;;;3.90;0.38;;;;;;;-146.25;100.00;52635.84;2080400;28;27572;-79
2023/11/16 00:29:22;;;;;;;6.93;0.47;;;;;;;-146.25;100.00;52605.44;2079020;28;28887;-79
2023/11/16 00:30:23;;;;;;;7.90;0.60;;;;;;;-146.25;100.00;52623.69;2079500;28;21563;-76
2023/11/16 00:31:25;;;;;;;5.90;0.30;;;;;;;-146.25;100.00;52619.63;2079411;28;31948;-78
2023/11/16 00:32:27;;;;;;;5.22;0.40;;;;;;;-146.25;100.00;52605.44;2083443;28;20887;-76
2023/11/16 00:33:30;;;;;;;7.63;0.50;;;;;;;-146.25;100.00;52611.50;2087383;28;29454;-76
2023/11/16 00:34:35;;;;;;;7.97;0.45;;;;;;;-146.25;100.00;52601.38;2088732;28;26282;-76
2023/11/16 00:35:36;;;;;;;7.15;0.30;;;;;;;-146.25;100.00;52617.59;2087413;28;24281;-79
2023/11/16 00:36:42;;;;;;;5.35;0.20;;;;;;;-146.25;100.00;52603.41;2087836;28;29782;-76
2023/11/16 00:37:44;;;;;;;4.85;0.20;;;;;;;-146.25;100.00;52615.56;2087910;28;20894;-78
2023/11/16 00:38:48;;;;;;;7.85;0.40;;;;;;;-146.25;100.00;52607.47;2087980;28;34965;-77
2023/11/16 00:39:52;;;;;;;3.33;0.20;;;;;;;-146.25;100.00;52615.56;2087643;28;20091;-75
2023/11/16 00:40:57;;;;;;;8.00;0.30;;;;;;;-146.25;100.00;52615.56;2088105;28;24614;-77
2023/11/16 00:41:59;;;;;;;4.78;0.20;;;;;;;-146.25;100.00;52643.97;2095125;28;31169;-77
2023/11/16 00:43:01;;;;;;;8.90;0.55;;;;;;;-146.25;100.00;52633.81;2088488;28;20096;-77
2023/11/16 00:44:05;;;;;;;5.38;0.25;;;;;;;-146.25;100.00;52619.63;2087795;28;24621;-77
2023/11/16 00:45:07;;;;;;;7.45;0.45;;;;;;;-146.25;100.00;52623.69;2088400;28;28580;-77
2023/11/16 00:46:16;;;;;;;8.73;0.40;;;;;;;-146.25;100.00;52593.25;2088150;28;20240;-75
2023/11/16 00:47:20;;;;;;;7.50;0.32;;;;;;;-146.25;100.00;52621.66;2088739;28;21753;-77
2023/11/16 00:48:23;;;;;;;3.53;0.20;;;;;;;-146.25;100.00;52581.09;2087588;28;20175;-77
2023/11/16 00:49:25;;;;;;;5.80;0.52;;;;;;;-146.25;100.00;52625.72;2088297;28;20037;-77
2023/11/16 00:50:27;;;;;;;5.68;0.30;;;;;;;-146.25;100.00;52603.41;2088355;28;25904;-77
2023/11/16 00:51:30;;;;;;;6.93;0.38;;;;;;;-146.25;100.00;52595.28;2088871;28;25012;-77
2023/11/16 00:52:33;;;;;;;6.55;0.40;;;;;;;-146.25;100.00;52607.47;2088676;28;20140;-77
2023/11/16 00:53:42;;;;;;;4.38;0.30;;;;;;;-146.25;100.00;52621.66;2088558;28;30841;-77
2023/11/16 00:54:48;;;;;;;6.43;0.40;;;;;;;-146.25;100.00;52587.19;2087535;28;21043;-77
2023/11/16 00:55:49;;;;;;;5.13;0.40;;;;;;;-146.25;100.00;52617.59;2088092;28;30650;-77
2023/11/16 00:56:51;;;;;;;8.73;0.40;;;;;;;-146.25;100.00;52617.59;2088009;28;20088;-77
2023/11/16 00:57:55;;;;;;;7.88;0.40;;;;;;;-146.25;100.00;52611.50;2088182;28;20045;-77
2023/11/16 00:58:56;;;;;;;2.70;0.32;;;;;;;-146.25;100.00;52589.22;2087367;28;32238;-77
2023/11/16 00:59:58;;;;;;;3.90;0.38;;;;;;;-146.25;100.00;52621.66;2079375;28;26536;-78
2023/11/16 01:01:00;;;;;;;5.25;0.38;;;;;;;-146.25;100.00;52593.25;2087472;28;28745;-78
2023/11/16 01:02:02;;;;;;;3.72;0.20;;;;;;;-146.25;100.00;52631.78;2087401;28;33072;-77
2023/11/16 01:03:06;;;;;;;3.85;0.20;;;;;;;-146.25;100.00;52615.56;2088078;28;20038;-77
2023/11/16 01:04:11;;;;;;;5.93;0.30;;;;;;;-146.25;100.00;52629.75;2088065;28;27728;-77
2023/11/16 01:05:17;;;;;;;4.45;0.20;;;;;;;-146.25;100.00;52603.41;2087133;28;30405;-77
2023/11/16 01:06:19;;;;;;;5.40;0.28;;;;;;;-146.25;100.00;52627.75;2081175;28;27302;-77
2023/11/16 01:07:21;;;;;;;7.60;0.22;;;;;;;-146.25;100.00;52627.75;2079623;28;30734;-77
2023/11/16 01:08:23;;;;;;;5.10;0.20;;;;;;;-146.25;100.00;52615.56;2088534;28;20080;-77
2023/11/16 01:09:25;;;;;;;3.95;0.20;;;;;;;-146.25;100.00;52607.47;2087622;28;35003;-78
2023/11/16 01:10:29;;;;;;;6.45;0.40;;;;;;;-146.25;100.00;52615.56;2087618;28;25916;-76
2023/11/16 01:11:36;;;;;;;6.15;0.20;;;;;;;-146.25;100.00;52603.41;2088168;28;20146;-77
2023/11/16 01:12:38;;;;;;;7.30;0.47;;;;;;;-146.25;100.00;52617.59;2088385;28;34711;-77
2023/11/16 01:13:42;;;;;;;8.27;0.30;;;;;;;-146.25;100.00;52621.66;2096193;28;20856;-77
2023/11/16 01:14:44;;;;;;;6.43;0.40;;;;;;;-146.25;100.00;52607.47;2095272;28;38697;-77
2023/11/16 01:15:48;;;;;;;5.13;0.32;;;;;;;-146.25;100.00;52625.72;2087682;28;28473;-78
2023/11/16 01:16:51;;;;;;;7.88;0.30;;;;;;;-146.25;100.00;52621.66;2087050;28;31584;-76
2023/11/16 01:17:53;;;;;;;8.30;0.45;;;;;;;-146.25;100.00;52591.25;2087947;28;30225;-77
2023/11/16 01:18:56;;;;;;;5.85;0.40;;;;;;;-146.25;100.00;52597.31;2088018;28;20038;-77
2023/11/16 01:20:04;;;;;;;5.32;0.47;;;;;;;-146.25;100.00;52627.75;2079320;28;31539;-78
2023/11/16 01:21:08;;;;;;;5.65;0.20;;;;;;;-146.25;100.00;52607.47;2087433;28;28405;-76
2023/11/16 01:22:14;;;;;;;3.75;0.40;;;;;;;-146.25;100.00;52607.47;2087638;28;28653;-76
2023/11/16 01:23:16;;;;;;;3.60;0.30;;;;;;;-146.25;100.00;52619.63;2088324;28;31222;-76
2023/11/16 01:24:22;;;;;;;3.65;0.30;;;;;;;-146.25;100.00;52611.50;2088275;28;27546;-77
2023/11/16 01:25:26;;;;;;;7.72;0.30;;;;;;;-146.25;100.00;52591.25;2078317;28;36427;-76
2023/11/16 01:26:29;;;;;;;7.93;0.60;;;;;;;-146.25;100.00;52617.59;2080850;28;20958;-77
2023/11/16 01:27:32;;;;;;;5.80;0.43;;;;;;;-146.25;100.00;52607.47;2087689;28;23213;-76
2023/11/16 01:28:35;;;;;;;8.65;0.20;;;;;;;-146.25;100.00;52627.75;2079488;28;31972;-77
2023/11/16 01:29:37;;;;;;;4.05;0.20;;;;;;;-146.25;100.00;52603.41;2087295;28;26671;-78
2023/11/16 01:30:42;;;;;;;4.25;0.45;;;;;;;-146.25;100.00;52581.09;2095990;28;27885;-77
2023/11/16 01:31:47;;;;;;;6.32;0.30;;;;;;;-146.25;100.00;52611.50;2095213;28;21191;-75
2023/11/16 01:32:51;;;;;;;4.43;0.40;;;;;;;-146.25;100.00;52639.91;2088141;28;20190;-76
2023/11/16 01:33:53;;;;;;;7.35;0.20;;;;;;;-146.25;100.00;52617.59;2087493;28;20077;-76
2023/11/16 01:34:55;;;;;;;5.65;0.20;;;;;;;-146.25;100.00;52627.75;2095945;28;36434;-76
2023/11/16 01:35:59;;;;;;;7.88;0.63;;;;;;;-146.25;100.00;52583.13;2087161;28;29591;-77
2023/11/16 01:37:03;;;;;;;6.13;0.40;;;;;;;-146.25;100.00;52637.88;2088337;28;20033;-77
2023/11/16 01:38:06;;;;;;;5.93;0.20;;;;;;;-146.25;100.00;52581.09;2087787;28;27056;-77
2023/11/16 01:39:10;;;;;;;10.48;0.28;;;;;;;-146.25;100.00;52593.25;2087891;28;26598;-77
2023/11/16 01:40:12;;;;;;;7.50;0.20;;;;;;;-146.25;100.00;52587.19;2079222;28;31466;-77
2023/11/16 01:41:14;;;;;;;7.15;0.28;;;;;;;-146.25;100.00;52615.56;2079741;28;27045;-76
2023/11/16 01:42:16;;;;;;;5.90;0.28;;;;;;;-146.25;100.00;52566.91;2087857;28;20692;-76
2023/11/16 01:43:17;;;;;;;5.57;0.30;;;;;;;-146.25;100.00;52599.34;2095993;28;25716;-77
2023/11/16 01:44:20;;;;;;;6.60;0.40;;;;;;;-146.25;100.00;52658.16;2095791;28;20096;-78
2023/11/16 01:45:33;;;;;;;7.82;0.38;;;;;;;-146.25;100.00;52633.81;2087771;28;20890;-79
2023/11/16 01:46:40;;;;;;;8.07;0.30;;;;;;;-146.25;100.00;52597.31;2087711;28;25580;-78
2023/11/16 01:47:43;;;;;;;6.40;0.30;;;;;;;-146.25;100.00;52611.50;2087935;28;20037;-79
2023/11/16 01:48:49;;;;;;;6.05;0.40;;;;;;;-146.25;100.00;52583.13;2079117;28;32151;-78
2023/11/16 01:49:51;;;;;;;9.02;0.40;;;;;;;-146.25;100.00;52577.03;2071363;28;28118;-78
2023/11/16 01:50:53;;;;;;;6.43;0.40;;;;;;;-146.25;100.00;52615.56;2079639;28;30209;-78
2023/11/16 01:51:57;;;;;;;7.82;0.30;;;;;;;-146.25;100.00;52595.28;2087764;28;30541;-79
2023/11/16 01:53:04;;;;;;;6.25;0.43;;;;;;;-146.25;100.00;52639.91;2087091;28;29000;-79
2023/11/16 01:54:06;;;;;;;6.28;0.40;;;;;;;-146.25;100.00;52583.13;2081185;28;20042;-76
2023/11/16 01:55:08;;;;;;;7.13;0.38;;;;;;;-146.25;100.00;52595.28;2088038;28;34863;-79
2023/11/16 01:56:15;;;;;;;9.45;0.40;;;;;;;-146.25;100.00;52621.66;2079533;28;20046;-75
2023/11/16 01:57:17;;;;;;;7.10;0.40;;;;;;;-146.25;100.00;52603.41;2064387;28;22193;-78
2023/11/16 01:58:22;;;;;;;7.75;1.23;;;;;;;-146.25;100.00;52629.75;2080655;28;20712;-76
2023/11/16 01:59:26;;;;;;;8.70;0.40;;;;;;;-146.25;100.00;52639.91;2088664;28;21011;-77
2023/11/16 02:00:29;;;;;;;8.23;0.40;;;;;;;-146.25;100.00;52607.47;2081237;28;20037;-77
2023/11/16 02:01:34;;;;;;;8.45;0.40;;;;;;;-146.25;100.00;52581.09;2089244;28;20346;-76
2023/11/16 02:02:40;;;;;;;9.50;0.40;;;;;;;-146.25;100.00;52601.38;2089070;28;20060;-76
2023/11/16 02:03:44;;;;;;;5.07;0.40;;;;;;;-146.25;100.00;52568.94;2072283;28;23738;-77
2023/11/16 02:04:46;;;;;;;7.00;0.22;;;;;;;-146.25;100.00;52617.59;2073750;28;26596;-76
2023/11/16 02:05:49;;;;;;;5.05;0.40;;;;;;;-146.25;100.00;52599.34;2081302;28;20089;-79
2023/11/16 02:06:53;;;;;;;6.90;0.40;;;;;;;-146.25;100.00;52609.50;2089216;28;20045;-76
2023/11/16 02:07:55;;;;;;;3.60;0.30;;;;;;;-146.25;100.00;52587.19;2097018;28;25525;-79
2023/11/16 02:08:59;;;;;;;7.20;0.60;;;;;;;-146.25;100.00;52589.22;2088746;28;20122;-79
2023/11/16 02:10:05;;;;;;;5.25;0.22;;;;;;;-146.25;100.00;52591.25;2080605;28;26919;-81
2023/11/16 02:11:07;;;;;;;8.45;0.40;;;;;;;-146.25;100.00;52627.75;2073383;28;20136;-81
2023/11/16 02:12:09;;;;;;;9.18;0.40;;;;;;;-146.25;100.00;52589.22;2081279;28;26642;-79
2023/11/16 02:13:20;;;;;;;10.77;0.50;;;;;;;-146.25;100.00;52566.91;2089222;28;20485;-77
2023/11/16 02:14:22;;;;;;;5.20;0.30;;;;;;;-146.25;100.00;52591.25;2090560;28;23439;-78
2023/11/16 02:15:27;;;;;;;6.80;0.40;;;;;;;-146.25;100.00;52579.06;2096779;28;20095;-77
2023/11/16 02:16:31;;;;;;;10.30;0.55;;;;;;;-146.25;100.00;52619.63;2088918;28;25207;-78
2023/11/16 02:17:35;;;;;;;12.63;0.63;;;;;;;-146.25;100.00;52579.06;2080356;28;27812;-77
2023/11/16 02:18:39;;;;;;;4.75;0.20;;;;;;;-146.25;100.00;52615.56;2081367;28;20658;-78
2023/11/16 02:19:41;;;;;;;6.43;0.40;;;;;;;-146.25;100.00;52562.84;2089077;28;27418;-77
2023/11/16 02:20:47;;;;;;;6.13;0.22;;;;;;;-146.25;100.00;52611.50;2088979;28;20165;-77
2023/11/16 02:21:52;;;;;;;4.32;0.20;;;;;;;-146.25;100.00;52603.41;2088618;28;20089;-76
2023/11/16 02:22:55;;;;;;;5.82;0.22;;;;;;;-146.25;100.00;52589.22;2088806;28;31720;-79
2023/11/16 02:23:59;;;;;;;6.93;0.20;;;;;;;-146.25;100.00;52591.25;2089594;28;20053;-77
2023/11/16 02:25:05;;;;;;;3.60;0.30;;;;;;;-146.25;100.00;52583.13;2088867;28;26918;-77
2023/11/16 02:26:07;;;;;;;4.38;0.30;;;;;;;-146.25;100.00;52581.09;2089064;28;32064;-76
2023/11/16 02:27:09;;;;;;;5.93;0.30;;;;;;;-146.25;100.00;52581.09;2088962;28;20046;-76
2023/11/16 02:28:13;;;;;;;9.32;0.40;;;;;;;-146.25;100.00;52599.34;2088871;28;20099;-77
2023/11/16 02:29:14;;;;;;;6.03;0.30;;;;;;;-146.25;100.00;52605.44;2096883;28;26205;-78
2023/11/16 02:30:16;;;;;;;6.75;0.30;;;;;;;-146.25;100.00;52603.41;2089147;28;30085;-79
2023/11/16 02:31:20;;;;;;;4.32;0.30;;;;;;;-146.25;100.00;52566.91;2089410;28;28145;-78
2023/11/16 02:32:26;;;;;;;5.90;0.40;;;;;;;-146.25;100.00;52562.84;2088839;28;20192;-79
2023/11/16 02:33:27;;;;;;;7.47;0.40;;;;;;;-146.25;100.00;52579.06;2081454;28;23628;-77
2023/11/16 02:34:29;;;;;;;5.13;0.20;;;;;;;-146.25;100.00;52613.53;2088034;28;33957;-77
2023/11/16 02:35:33;;;;;;;4.78;0.40;;;;;;;-146.25;100.00;52595.28;2088951;28;23608;-76
2023/11/16 02:36:38;;;;;;;7.47;0.20;;;;;;;-146.25;100.00;52637.88;2088547;28;20898;-76
2023/11/16 02:37:40;;;;;;;4.65;0.30;;;;;;;-146.25;100.00;52554.75;2089109;28;26986;-77
2023/11/16 02:38:44;;;;;;;5.53;0.20;;;;;;;-146.25;100.00;52603.41;2089552;28;26020;-77
2023/11/16 02:39:46;;;;;;;6.63;0.22;;;;;;;-146.25;100.00;52595.28;2089449;28;23151;-76
2023/11/16 02:40:51;;;;;;;4.32;0.20;;;;;;;-146.25;100.00;52593.25;2088774;28;20038;-75
2023/11/16 02:41:55;;;;;;;3.17;0.30;;;;;;;-146.25;100.00;52575.00;2080684;28;20148;-77
2023/11/16 02:42:58;;;;;;;5.28;0.40;;;;;;;-146.25;100.00;52575.00;2088531;28;31029;-76
2023/11/16 02:44:00;;;;;;;9.30;0.57;;;;;;;-146.25;100.00;52544.59;2096518;28;30479;-77
2023/11/16 02:45:03;;;;;;;5.20;0.60;;;;;;;-146.25;100.00;52599.34;2089085;28;24358;-77
2023/11/16 02:46:05;;;;;;;4.90;0.20;;;;;;;-146.25;100.00;52577.03;2089217;28;30873;-77
2023/11/16 02:47:11;;;;;;;5.93;0.40;;;;;;;-146.25;100.00;52558.78;2088123;28;30293;-77
2023/11/16 02:48:15;;;;;;;6.20;0.30;;;;;;;-146.25;100.00;52566.91;2089214;28;20048;-76
2023/11/16 02:49:17;;;;;;;3.13;0.30;;;;;;;-146.25;100.00;52522.28;2087993;28;30877;-77
2023/11/16 02:50:22;;;;;;;5.63;0.40;;;;;;;-146.25;100.00;52587.19;2089074;28;31644;-77
2023/11/16 02:51:23;;;;;;;6.40;0.30;;;;;;;-146.25;100.00;52599.34;2087813;28;30928;-77
2023/11/16 02:52:25;;;;;;;4.13;0.40;;;;;;;-146.25;100.00;52607.47;2088688;28;24807;-77
2023/11/16 02:53:27;;;;;;;6.93;0.52;;;;;;;-146.25;100.00;52583.13;2089166;28;28485;-78
2023/11/16 02:54:30;;;;;;;8.80;0.30;;;;;;;-146.25;100.00;52568.94;2089450;28;20123;-77
2023/11/16 02:55:34;;;;;;;3.28;0.20;;;;;;;-146.25;100.00;52595.28;2088401;28;31855;-77
2023/11/16 02:56:38;;;;;;;3.63;0.13;;;;;;;-146.25;100.00;52585.16;2089375;28;20123;-77
2023/11/16 02:57:40;;;;;;;6.82;0.20;;;;;;;-146.25;100.00;52587.19;2087585;28;34924;-76
2023/11/16 02:58:43;;;;;;;3.80;0.28;;;;;;;-146.25;100.00;52615.56;2089223;28;20115;-77
2023/11/16 02:59:48;;;;;;;3.67;0.30;;;;;;;-146.25;100.00;52601.38;2096118;28;26687;-76
2023/11/16 03:00:54;;;;;;;3.70;0.30;;;;;;;-146.25;100.00;52581.09;2087926;28;20045;-76
2023/11/16 03:01:57;;;;;;;2.95;0.20;;;;;;;-146.25;100.00;52609.50;2089597;28;20041;-77
2023/11/16 03:03:02;;;;;;;17.45;1.10;;;;;;;-146.25;100.00;52593.25;2088552;28;20080;-76
2023/11/16 03:04:05;;;;;;;6.35;0.25;;;;;;;-146.25;100.00;52575.00;2088650;28;20042;-77
2023/11/16 03:05:13;;;;;;;7.13;0.20;;;;;;;-146.25;100.00;52593.25;2088123;28;31532;-75
2023/11/16 03:06:16;;;;;;;3.45;0.47;;;;;;;-146.25;100.00;52609.50;2089293;28;24066;-76
2023/11/16 03:07:18;;;;;;;6.13;0.28;;;;;;;-146.25;100.00;52583.13;2089434;28;26636;-76
2023/11/16 03:08:27;;;;;;;5.93;0.38;;;;;;;-146.25;100.00;52591.25;2098025;28;28930;-77
2023/11/16 03:09:29;;;;;;;3.97;0.20;;;;;;;-146.25;100.00;52579.06;2104436;28;31207;-75
2023/11/16 03:10:34;;;;;;;5.28;0.20;;;;;;;-146.25;100.00;52599.34;2087744;28;30182;-75
2023/11/16 03:11:38;;;;;;;5.88;0.20;;;;;;;-146.25;100.00;52611.50;2089396;28;20038;-76
2023/11/16 03:12:40;;;;;;;4.75;0.30;;;;;;;-146.25;100.00;52601.38;2097183;28;31220;-76
2023/11/16 03:13:42;;;;;;;3.05;0.20;;;;;;;-146.25;100.00;52570.97;2096502;28;30754;-76
2023/11/16 03:14:44;;;;;;;5.50;0.40;;;;;;;-146.25;100.00;52625.72;2096695;28;29970;-77
2023/11/16 03:15:48;;;;;;;4.72;0.28;;;;;;;-146.25;100.00;52591.25;2097834;28;20033;-78
2023/11/16 03:16:50;;;;;;;3.85;0.20;;;;;;;-146.25;100.00;52615.56;2104725;28;26412;-76
2023/11/16 03:17:52;;;;;;;4.85;0.20;;;;;;;-146.25;100.00;52585.16;2104521;28;31629;-77
2023/11/16 03:18:53;;;;;;;2.50;0.20;;;;;;;-146.25;100.00;52623.69;2096127;28;29639;-78
2023/11/16 03:19:56;;;;;;;6.32;0.20;;;;;;;-146.25;100.00;52611.50;2096306;28;20676;-77
2023/11/16 03:20:58;;;;;;;4.45;0.20;;;;;;;-146.25;100.00;52615.56;2088688;28;20926;-77
2023/11/16 03:22:02;;;;;;;8.52;0.20;;;;;;;-146.25;100.00;52613.53;2096429;28;32791;-77
2023/11/16 03:23:04;;;;;;;2.92;0.30;;;;;;;-146.25;100.00;52619.63;2104750;28;25739;-77
2023/11/16 03:24:09;;;;;;;1.73;0.20;;;;;;;-146.25;100.00;52599.34;2097407;28;28551;-77
2023/11/16 03:25:12;;;;;;;3.67;0.40;;;;;;;-146.25;100.00;52591.25;2097076;28;33158;-76
2023/11/16 03:26:13;;;;;;;4.97;0.20;;;;;;;-146.25;100.00;52603.41;2096391;28;28650;-77
2023/11/16 03:27:15;;;;;;;6.05;0.30;;;;;;;-146.25;100.00;52603.41;2096620;28;25602;-78
2023/11/16 03:28:17;;;;;;;4.25;0.10;;;;;;;-146.25;100.00;52589.22;2097032;28;34850;-78
2023/11/16 03:29:20;;;;;;;3.00;0.20;;;;;;;-146.25;100.00;52617.59;2105125;28;22945;-77
2023/11/16 03:30:22;;;;;;;5.45;0.10;;;;;;;-146.25;100.00;52648.00;2096787;28;20048;-77
2023/11/16 03:31:24;;;;;;;2.80;0.10;;;;;;;-146.25;100.00;52635.84;2096688;28;28354;-78
2023/11/16 03:32:26;;;;;;;2.42;0.10;;;;;;;-146.25;100.00;52605.44;2088154;28;25351;-78
2023/11/16 03:33:28;;;;;;;2.58;0.15;;;;;;;-146.25;100.00;52617.59;2089154;28;20038;-78
2023/11/16 03:34:30;;;;;;;6.65;0.30;;;;;;;-146.25;100.00;52603.41;2096788;28;20262;-77
2023/11/16 03:35:32;;;;;;;4.10;0.20;;;;;;;-146.25;100.00;52619.63;2090678;28;20042;-77
2023/11/16 03:36:34;;;;;;;4.68;0.10;;;;;;;-146.25;100.00;52643.97;2088929;28;27843;-77
2023/11/16 03:37:36;;;;;;;1.73;0.20;;;;;;;-146.25;100.00;52597.31;2088916;28;20077;-77
2023/11/16 03:38:40;;;;;;;3.15;0.10;;;;;;;-146.25;100.00;52607.47;2089206;28;20091;-77
2023/11/16 03:39:42;;;;;;;3.55;0.10;;;;;;;-146.25;100.00;52617.59;2088637;28;31348;-78
2023/11/16 03:40:44;;;;;;;2.88;0.20;;;;;;;-146.25;100.00;52635.84;2087731;28;24890;-76
2023/11/16 03:41:46;;;;;;;1.75;0.20;;;;;;;-146.25;100.00;52615.56;2072628;28;20050;-77
2023/11/16 03:42:48;;;;;;;4.07;0.10;;;;;;;-146.25;100.00;52613.53;2079989;28;35610;-77
2023/11/16 03:43:49;;;;;;;3.22;0.20;;;;;;;-146.25;100.00;52635.84;2096584;28;31777;-77
2023/11/16 03:44:51;;;;;;;3.88;0.20;;;;;;;-146.25;100.00;52607.47;2088509;28;20033;-78
2023/11/16 03:45:56;;;;;;;3.03;0.10;;;;;;;-146.25;100.00;52619.63;2089271;28;30534;-77
2023/11/16 03:46:57;;;;;;;5.38;0.28;;;;;;;-146.25;100.00;52623.69;2087806;28;32486;-76
2023/11/16 03:47:59;;;;;;;4.68;0.20;;;;;;;-146.25;100.00;52615.56;2088451;28;20164;-78
2023/11/16 03:49:01;;;;;;;4.75;0.20;;;;;;;-146.25;100.00;52619.63;2088546;28;30765;-78
2023/11/16 03:50:04;;;;;;;2.38;0.10;;;;;;;-146.25;100.00;52589.22;2088580;28;27320;-78
2023/11/16 03:51:06;;;;;;;1.73;0.10;;;;;;;-146.25;100.00;52619.63;2088060;28;20157;-78
2023/11/16 03:52:08;;;;;;;3.47;0.10;;;;;;;-146.25;100.00;52635.84;2088085;28;31180;-78
2023/11/16 03:53:10;;;;;;;2.90;0.15;;;;;;;-146.25;100.00;52617.59;2087642;28;29278;-77
2023/11/16 03:54:12;;;;;;;1.90;0.10;;;;;;;-146.25;100.00;52613.53;2088206;28;27866;-78
2023/11/16 03:55:14;;;;;;;3.88;0.10;;;;;;;-146.25;100.00;52613.53;2088574;28;20060;-76
2023/11/16 03:56:18;;;;;;;3.97;0.20;;;;;;;-146.25;100.00;52581.09;2088364;28;24575;-78
2023/11/16 03:57:20;;;;;;;3.65;0.20;;;;;;;-146.25;100.00;52656.13;2088718;28;20095;-77
2023/11/16 03:58:22;;;;;;;4.28;0.10;;;;;;;-146.25;100.00;52643.97;2080245;28;20155;-77
2023/11/16 03:59:26;;;;;;;2.00;0.10;;;;;;;-146.25;100.00;52623.69;2071825;28;26345;-76
2023/11/16 04:00:31;;;;;;;5.13;0.10;;;;;;;-146.25;100.00;52593.25;2088047;28;22374;-78
2023/11/16 04:01:37;;;;;;;3.45;0.20;;;;;;;-146.25;100.00;52631.78;2088845;28;20890;-78
2023/11/16 04:02:41;;;;;;;3.72;0.20;;;;;;;-146.25;100.00;52613.53;2089014;28;21938;-78
2023/11/16 04:03:44;;;;;;;4.00;0.20;;;;;;;-146.25;100.00;52605.44;2079557;28;20042;-77
2023/11/16 04:04:47;;;;;;;2.13;0.20;;;;;;;-146.25;100.00;52623.69;2065062;28;20109;-77
2023/11/16 04:05:49;;;;;;;3.70;0.05;;;;;;;-146.25;100.00;52611.50;2072124;28;20042;-76
2023/11/16 04:06:51;;;;;;;2.58;0.10;;;;;;;-146.25;100.00;52641.94;2088112;28;24535;-78
2023/11/16 04:07:56;;;;;;;4.43;0.20;;;;;;;-146.25;100.00;52617.59;2088638;28;27099;-77
2023/11/16 04:08:58;;;;;;;3.00;0.20;;;;;;;-146.25;100.00;52583.13;2088863;28;20045;-77
2023/11/16 04:10:01;;;;;;;8.07;0.10;;;;;;;-146.25;100.00;52637.88;2071452;28;30998;-77
2023/11/16 04:11:04;;;;;;;6.93;0.20;;;;;;;-146.25;100.00;52619.63;2072112;28;30531;-77
2023/11/16 04:12:06;;;;;;;3.10;0.10;;;;;;;-146.25;100.00;52627.75;2088605;28;21095;-77
2023/11/16 04:13:08;;;;;;;6.90;0.30;;;;;;;-146.25;100.00;52605.44;2096368;28;34566;-77
2023/11/16 04:14:10;;;;;;;2.80;0.15;;;;;;;-146.25;100.00;52591.25;2087907;28;29997;-77
2023/11/16 04:15:13;;;;;;;3.92;0.10;;;;;;;-146.25;100.00;52613.53;2088401;28;20119;-78
2023/11/16 04:16:23;;;;;;;5.70;0.10;;;;;;;-146.25;100.00;52643.97;2088376;28;27660;-76
2023/11/16 04:17:26;;;;;;;;;;;;;;;-146.25;100.00;52625.72;2089305;28;23055;-79
2023/11/16 04:18:28;;;;;;;3.78;0.32;;;;;;;-146.25;100.00;52623.69;2088931;28;19921;-77
2023/11/16 04:19:30;;;;;;;4.32;0.20;;;;;;;-146.25;100.00;52575.00;2088901;28;29920;-80
2023/11/16 04:20:32;;;;;;;3.97;0.15;;;;;;;-146.25;100.00;52601.38;2096168;28;20056;-79
2023/11/16 04:21:36;;;;;;;3.00;0.10;;;;;;;-146.25;100.00;52607.47;2095968;28;20041;-79
2023/11/16 04:22:40;;;;;;;4.15;0.10;;;;;;;-146.25;100.00;52599.34;2087906;28;20037;-75
2023/11/16 04:23:44;;;;;;;6.88;0.10;;;;;;;-146.25;100.00;52609.50;2079855;28;34424;-79
2023/11/16 04:24:48;;;;;;;1.80;0.10;;;;;;;-146.25;100.00;52625.72;2087819;28;30210;-74
2023/11/16 04:25:54;;;;;;;4.82;0.10;;;;;;;-146.25;100.00;52613.53;2096654;28;20029;-79
2023/11/16 04:26:56;;;;;;;5.35;0.13;;;;;;;-146.25;100.00;52635.84;2095018;28;30236;-80
2023/11/16 04:28:04;;;;;;;4.95;0.28;;;;;;;-146.25;100.00;52603.41;2089091;28;20886;-79
2023/11/16 04:29:08;;;;;;;4.28;0.30;;;;;;;-146.25;100.00;52625.72;2088110;28;27169;-79
2023/11/16 04:30:13;;;;;;;7.30;0.20;;;;;;;-146.25;100.00;52623.69;2088693;28;20041;-79
2023/11/16 04:31:15;;;;;;;2.20;0.10;;;;;;;-146.25;100.00;52652.06;2088613;28;23098;-79
2023/11/16 04:32:17;;;;;;;6.75;0.20;;;;;;;-146.25;100.00;52615.56;2096048;28;36390;-79
2023/11/16 04:33:20;;;;;;;2.00;0.10;;;;;;;-146.25;100.00;52611.50;2088832;28;20156;-79
2023/11/16 04:34:22;;;;;;;1.92;0.10;;;;;;;-146.25;100.00;52635.84;2088753;28;33421;-79
2023/11/16 04:35:27;;;;;;;2.78;0.50;;;;;;;-146.25;100.00;52650.03;2087413;28;37599;-80
2023/11/16 04:36:29;;;;;;;3.00;0.10;;;;;;;-146.25;100.00;52595.28;2088657;28;20034;-79
2023/11/16 04:37:33;;;;;;;3.88;0.10;;;;;;;-146.25;100.00;52650.03;2087190;28;39769;-78
2023/11/16 04:38:35;;;;;;;4.82;0.30;;;;;;;-146.25;100.00;52577.03;2087959;28;33538;-78
2023/11/16 04:39:37;;;;;;;5.00;0.10;;;;;;;-146.25;100.00;52609.50;2088824;28;20147;-79
2023/11/16 04:40:41;;;;;;;3.85;0.10;;;;;;;-146.25;100.00;52621.66;2096569;28;20052;-79
2023/11/16 04:41:45;;;;;;;3.88;0.13;;;;;;;-146.25;100.00;52595.28;2095601;28;32418;-79
2023/11/16 04:42:47;;;;;;;4.93;0.20;;;;;;;-146.25;100.00;52603.41;2088962;28;20046;-79
2023/11/16 04:43:49;;;;;;;3.13;0.10;;;;;;;-146.25;100.00;52629.75;2087494;28;34477;-79
2023/11/16 04:44:52;;;;;;;2.13;0.10;;;;;;;-146.25;100.00;52617.59;2087707;28;34669;-79
2023/11/16 04:45:54;;;;;;;2.55;0.10;;;;;;;-146.25;100.00;52615.56;2088704;28;20969;-78
2023/11/16 04:46:56;;;;;;;3.13;0.15;;;;;;;-146.25;100.00;52597.31;2088171;28;32447;-79
2023/11/16 04:47:59;;;;;;;3.17;0.10;;;;;;;-146.25;100.00;52619.63;2088169;28;31873;-79